Time;durP1;ratioP1;P1;durP2;ratioP2;P2;SDS_P1;SDS_P2;PMS_P1;PMS_P2;Temp;Humidity;BMP_temperature;BMP_pressure;BME280_temperature;BME280_humidity;BME280_pressure;Samples;Min_cycle;Max_cycle;Signal;HPM_P1;HPM_P2
2021/11/17 02:27:48;;;;;;;23.55;8.90;;;10.10;92.30;;;;;;5051706;28;20044;-59
2021/11/17 02:30:23;;;;;;;22.88;8.75;;;10.10;92.30;;;;;;5018547;28;20040;-59
2021/11/17 02:33:14;;;;;;;14.57;8.73;;;10.10;92.30;;;;;;5064562;28;20119;-60
2021/11/17 02:35:39;;;;;;;26.88;8.88;;;10.10;92.30;;;;;;5064142;28;20403;-59
2021/11/17 02:38:48;;;;;;;24.33;8.80;;;10.10;92.30;;;;;;5045318;28;20040;-59
2021/11/17 02:41:39;;;;;;;14.73;8.32;;;10.10;92.30;;;;;;5051822;28;20518;-60
2021/11/17 02:44:14;;;;;;;15.15;8.57;;;10.10;92.30;;;;;;5045758;28;20507;-60
2021/11/17 02:46:51;;;;;;;17.20;8.52;;;10.10;92.30;;;;;;5064423;28;20052;-59
2021/11/17 02:49:43;;;;;;;23.23;8.48;;;10.10;92.30;;;;;;5057248;28;20107;-59
2021/11/17 02:52:28;;;;;;;16.90;8.05;;;10.10;92.30;;;;;;5031810;28;20032;-59
2021/11/17 02:55:23;;;;;;;20.77;7.05;;;10.10;92.30;;;;;;5047658;28;20017;-59
2021/11/17 02:58:14;;;;;;;18.52;8.40;;;10.00;92.20;;;;;;5061498;28;20032;-60
2021/11/17 03:01:02;;;;;;;18.88;8.95;;;10.00;92.30;;;;;;5063140;28;20028;-59
2021/11/17 03:03:46;;;;;;;13.75;7.82;;;10.00;92.30;;;;;;5064262;28;20098;-63
2021/11/17 03:06:31;;;;;;;23.80;8.27;;;10.00;92.30;;;;;;5066727;28;20036;-61
2021/11/17 03:09:09;;;;;;;15.80;8.75;;;10.00;92.30;;;;;;5057354;28;20540;-60
2021/11/17 03:11:54;;;;;;;13.95;8.80;;;10.00;92.30;;;;;;5063430;28;20497;-60
2021/11/17 03:14:25;;;;;;;15.35;8.70;;;10.00;92.30;;;;;;5063960;28;20059;-60
2021/11/17 03:17:18;;;;;;;16.13;8.27;;;9.90;92.30;;;;;;5064647;28;20143;-59
2021/11/17 03:20:05;;;;;;;18.63;8.75;;;10.00;92.30;;;;;;5062513;28;20478;-59
2021/11/17 03:22:36;;;;;;;17.02;9.02;;;10.00;92.30;;;;;;5061572;28;20044;-59
2021/11/17 03:25:28;;;;;;;14.07;8.68;;;10.00;92.30;;;;;;5059743;28;20031;-60
2021/11/17 03:28:03;;;;;;;14.98;8.32;;;10.00;92.30;;;;;;5059839;28;20106;-60
2021/11/17 03:30:49;;;;;;;11.37;8.40;;;10.00;92.40;;;;;;5065421;28;20613;-59
2021/11/17 03:33:34;;;;;;;12.70;8.23;;;9.90;92.30;;;;;;5062497;28;20037;-60
2021/11/17 03:36:11;;;;;;;13.25;8.48;;;9.90;92.30;;;;;;5046560;28;20033;-59
2021/11/17 03:38:56;;;;;;;15.55;8.35;;;9.90;92.40;;;;;;5061953;28;20036;-59
2021/11/17 03:41:28;;;;;;;14.15;8.80;;;9.90;92.40;;;;;;5065462;28;20036;-59
2021/11/17 03:44:22;;;;;;;12.70;7.60;;;9.90;92.40;;;;;;5065949;28;20499;-59
2021/11/17 03:46:58;;;;;;;11.50;7.40;;;9.90;92.40;;;;;;5056713;28;20089;-59
2021/11/17 03:49:35;;;;;;;10.95;8.27;;;9.90;92.40;;;;;;5046479;28;20016;-60
2021/11/17 03:52:41;;;;;;;20.95;8.57;;;9.90;92.30;;;;;;5061622;28;20155;-60
2021/11/17 03:55:19;;;;;;;15.88;8.50;;;9.90;92.30;;;;;;5064091;28;20395;-59
2021/11/17 03:57:54;;;;;;;13.75;7.32;;;9.90;92.30;;;;;;5064687;28;20031;-59
2021/11/17 04:00:52;;;;;;;13.90;8.02;;;9.90;92.30;;;;;;5064762;28;21473;-59
2021/11/17 04:03:25;;;;;;;12.57;7.95;;;9.90;92.30;;;;;;5039059;28;20495;-59
2021/11/17 04:05:57;;;;;;;16.38;8.52;;;9.90;92.30;;;;;;5029123;28;20051;-59
2021/11/17 04:09:05;;;;;;;16.88;7.75;;;9.90;92.30;;;;;;5063388;28;20081;-59
2021/11/17 04:11:37;;;;;;;9.80;8.00;;;9.90;92.30;;;;;;5043874;28;20617;-59
2021/11/17 04:14:05;;;;;;;12.38;7.72;;;9.80;92.20;;;;;;5064294;28;20039;-60
2021/11/17 04:16:52;;;;;;;15.23;8.07;;;9.80;92.30;;;;;;5062697;28;20591;-60
2021/11/17 04:19:41;;;;;;;13.02;7.88;;;9.90;92.30;;;;;;5043876;28;20037;-59
2021/11/17 04:22:41;;;;;;;11.05;7.72;;;9.80;92.50;;;;;;5048628;28;20033;-61
2021/11/17 04:25:26;;;;;;;16.38;7.68;;;9.80;92.20;;;;;;5061537;28;20035;-60
2021/11/17 04:28:08;;;;;;;8.63;6.95;;;9.80;92.20;;;;;;5061698;28;20016;-60
2021/11/17 04:30:48;;;;;;;10.35;7.25;;;9.80;92.20;;;;;;5061364;28;20028;-60
2021/11/17 04:33:36;;;;;;;9.93;7.18;;;9.80;92.20;;;;;;5063143;28;20020;-60
2021/11/17 04:36:40;;;;;;;12.73;7.07;;;9.80;92.20;;;;;;5063826;28;20415;-64
2021/11/17 04:39:18;;;;;;;10.25;6.53;;;9.80;92.20;;;;;;5011108;28;20032;-60
2021/11/17 04:42:04;;;;;;;9.45;6.70;;;9.70;92.20;;;;;;5044491;28;20025;-59
2021/11/17 04:44:44;;;;;;;10.27;6.82;;;9.70;92.10;;;;;;5061328;28;21010;-61
2021/11/17 04:47:44;;;;;;;15.30;6.55;;;9.70;92.10;;;;;;5061854;28;20032;-60
2021/11/17 04:50:26;;;;;;;9.23;6.03;;;9.70;92.20;;;;;;5047904;28;20029;-59
2021/11/17 04:53:04;;;;;;;11.85;5.97;;;9.70;92.20;;;;;;5045243;28;20116;-59
2021/11/17 04:56:01;;;;;;;10.55;6.75;;;9.70;92.10;;;;;;5063026;28;20021;-60
2021/11/17 04:58:45;;;;;;;15.13;6.80;;;9.70;92.20;;;;;;5048641;28;21275;-60
2021/11/17 05:01:39;;;;;;;12.05;6.78;;;9.70;92.20;;;;;;5045826;28;20105;-60
2021/11/17 05:04:22;;;;;;;9.35;5.82;;;9.60;92.20;;;;;;5063002;28;20078;-60
2021/11/17 05:06:57;;;;;;;9.68;6.07;;;9.70;92.20;;;;;;5063299;28;20514;-59
2021/11/17 05:09:50;;;;;;;10.68;5.93;;;9.60;92.20;;;;;;5060805;28;20056;-61
2021/11/17 05:12:28;;;;;;;10.13;5.82;;;9.60;92.20;;;;;;5030755;28;20032;-60
2021/11/17 05:15:11;;;;;;;8.73;5.97;;;9.60;92.20;;;;;;5064241;28;20029;-59
2021/11/17 05:18:05;;;;;;;12.65;6.45;;;9.60;92.20;;;;;;5063559;28;20126;-61
2021/11/17 05:20:52;;;;;;;7.07;5.50;;;9.50;92.20;;;;;;5044136;28;20418;-60
2021/11/17 05:23:36;;;;;;;8.77;5.45;;;9.50;92.20;;;;;;5061132;28;20033;-60
2021/11/17 05:26:40;;;;;;;11.23;5.97;;;9.50;92.20;;;;;;5062620;28;20027;-60
2021/11/17 05:29:36;;;;;;;7.53;5.43;;;9.50;92.20;;;;;;5048763;28;20115;-60
2021/11/17 05:32:17;;;;;;;6.95;5.65;;;9.50;92.20;;;;;;5063136;28;20028;-60
2021/11/17 05:34:55;;;;;;;7.32;5.28;;;9.50;92.20;;;;;;5059093;28;20032;-59
2021/11/17 05:37:36;;;;;;;9.88;5.07;;;9.50;92.30;;;;;;5062041;28;20673;-60
2021/11/17 05:40:14;;;;;;;9.95;5.68;;;9.50;92.30;;;;;;5043795;28;20043;-60
2021/11/17 05:42:51;;;;;;;7.43;4.45;;;9.50;92.20;;;;;;5062928;28;20529;-59
2021/11/17 05:45:24;;;;;;;6.82;5.38;;;9.50;92.20;;;;;;5032821;28;20052;-60
2021/11/17 05:47:52;;;;;;;8.90;5.75;;;9.50;92.30;;;;;;5045897;28;20051;-59
2021/11/17 05:50:27;;;;;;;7.68;5.38;;;9.50;92.20;;;;;;5064887;28;20475;-60
2021/11/17 05:53:06;;;;;;;7.57;5.07;;;9.50;92.20;;;;;;5066359;28;20390;-60
2021/11/17 05:55:40;;;;;;;10.30;4.88;;;9.40;92.20;;;;;;5063327;28;20024;-59
2021/11/17 05:58:47;;;;;;;6.50;4.97;;;9.40;92.20;;;;;;5064405;28;20025;-60
2021/11/17 06:01:31;;;;;;;6.60;5.40;;;9.40;92.20;;;;;;5051028;28;20580;-60
2021/11/17 06:04:01;;;;;;;7.55;4.93;;;9.40;92.20;;;;;;5066087;28;20045;-60
2021/11/17 06:06:26;;;;;;;7.95;4.57;;;9.40;92.20;;;;;;5048475;28;20032;-61
2021/11/17 06:08:55;;;;;;;7.93;4.88;;;9.40;92.20;;;;;;5066593;28;20028;-61
2021/11/17 06:11:34;;;;;;;5.50;4.40;;;9.40;92.20;;;;;;5066866;28;20459;-60
2021/11/17 06:14:00;;;;;;;5.07;4.55;;;9.40;92.20;;;;;;5032161;28;20052;-60
2021/11/17 06:16:26;;;;;;;7.03;4.03;;;9.40;92.10;;;;;;5029357;28;20068;-59
2021/11/17 06:18:53;;;;;;;5.07;4.55;;;9.40;92.20;;;;;;5015608;28;20025;-60
2021/11/17 06:21:18;;;;;;;6.93;4.70;;;9.40;92.50;;;;;;5044607;28;20038;-59
2021/11/17 06:23:53;;;;;;;5.32;4.03;;;9.30;92.10;;;;;;5031856;28;20127;-60
2021/11/17 06:26:21;;;;;;;6.13;4.45;;;9.40;92.20;;;;;;5013936;28;20024;-60
2021/11/17 06:28:54;;;;;;;6.00;4.88;;;9.30;92.20;;;;;;5031134;28;20025;-60
2021/11/17 06:31:20;;;;;;;7.18;4.55;;;9.30;92.10;;;;;;5032419;28;20078;-60
2021/11/17 06:33:46;;;;;;;5.18;4.07;;;9.30;92.20;;;;;;5032604;28;20028;-60
2021/11/17 06:36:11;;;;;;;5.55;3.88;;;9.30;92.10;;;;;;5048944;28;20051;-60
2021/11/17 06:38:37;;;;;;;5.68;3.97;;;9.30;92.10;;;;;;5048088;28;20100;-59
2021/11/17 06:41:03;;;;;;;5.45;4.00;;;9.30;92.10;;;;;;5064460;28;20037;-60
2021/11/17 06:43:30;;;;;;;4.72;3.63;;;9.30;92.10;;;;;;5030698;28;20044;-60
2021/11/17 06:45:56;;;;;;;4.25;3.50;;;9.30;92.10;;;;;;5066026;28;20023;-60
2021/11/17 06:48:22;;;;;;;4.50;3.67;;;9.30;92.10;;;;;;5047610;28;20029;-60
2021/11/17 06:50:48;;;;;;;4.55;4.00;;;9.30;92.10;;;;;;5029608;28;20103;-59
2021/11/17 06:53:14;;;;;;;4.97;4.20;;;9.30;92.10;;;;;;5035441;28;20044;-60
2021/11/17 06:55:39;;;;;;;5.55;3.80;;;9.30;92.00;;;;;;5029573;28;20037;-60
2021/11/17 06:58:05;;;;;;;4.68;3.92;;;9.20;92.00;;;;;;5028624;28;20043;-59
2021/11/17 07:00:32;;;;;;;5.38;3.75;;;9.30;92.00;;;;;;5032603;28;20032;-60
2021/11/17 07:02:58;;;;;;;4.18;3.72;;;9.20;92.10;;;;;;5030527;28;20134;-60
2021/11/17 07:05:23;;;;;;;3.95;3.55;;;9.20;92.10;;;;;;5046712;28;20495;-61
2021/11/17 07:07:52;;;;;;;5.13;3.85;;;9.20;92.10;;;;;;5029424;28;20548;-62
2021/11/17 07:10:17;;;;;;;4.78;4.10;;;9.20;92.10;;;;;;5065257;28;20028;-60
2021/11/17 07:12:43;;;;;;;5.97;4.05;;;9.20;92.00;;;;;;5030893;28;20017;-60
2021/11/17 07:15:10;;;;;;;7.80;3.80;;;9.20;92.00;;;;;;5046695;28;20517;-62
2021/11/17 07:17:36;;;;;;;4.80;3.78;;;9.20;92.00;;;;;;5045900;28;20403;-60
2021/11/17 07:20:02;;;;;;;4.10;3.20;;;9.20;92.00;;;;;;5012572;28;20480;-59
2021/11/17 07:22:28;;;;;;;4.70;3.42;;;9.20;92.00;;;;;;5064144;28;20090;-60
2021/11/17 07:24:53;;;;;;;9.25;3.40;;;9.20;92.00;;;;;;5046594;28;20419;-60
2021/11/17 07:27:22;;;;;;;4.82;3.67;;;9.20;92.00;;;;;;5047736;28;20059;-60
2021/11/17 07:29:49;;;;;;;8.77;3.70;;;9.20;92.00;;;;;;5048160;28;20382;-60
2021/11/17 07:32:14;;;;;;;8.88;3.97;;;9.10;92.00;;;;;;5046661;28;20379;-60
2021/11/17 07:34:40;;;;;;;3.30;2.90;;;9.20;92.00;;;;;;5046377;28;20047;-60
2021/11/17 07:37:06;;;;;;;4.35;3.25;;;9.20;92.00;;;;;;5030110;28;20388;-59
2021/11/17 07:39:31;;;;;;;6.05;3.28;;;9.20;92.00;;;;;;5045662;28;20036;-60
2021/11/17 07:41:57;;;;;;;5.20;3.45;;;9.10;91.90;;;;;;5061860;28;20424;-60
2021/11/17 07:44:22;;;;;;;5.20;3.67;;;9.10;92.00;;;;;;5045493;28;20036;-60
2021/11/17 07:46:53;;;;;;;5.57;3.50;;;9.10;92.00;;;;;;5063509;28;20021;-60
2021/11/17 07:49:19;;;;;;;4.68;3.58;;;9.10;91.90;;;;;;5029812;28;20458;-60
2021/11/17 07:51:44;;;;;;;6.13;3.40;;;9.10;92.00;;;;;;5030398;28;20033;-60
2021/11/17 07:54:10;;;;;;;7.20;3.63;;;9.20;92.00;;;;;;5027696;28;20032;-60
2021/11/17 07:56:37;;;;;;;7.43;3.45;;;9.10;91.90;;;;;;5029082;28;20264;-60
2021/11/17 07:59:03;;;;;;;8.13;3.47;;;9.10;91.90;;;;;;5026468;28;20029;-61
2021/11/17 08:01:29;;;;;;;8.07;3.60;;;9.10;92.00;;;;;;5044069;28;20079;-60
2021/11/17 08:03:54;;;;;;;4.10;3.20;;;9.10;92.00;;;;;;5027955;28;20068;-60
2021/11/17 08:06:22;;;;;;;8.10;4.10;;;9.10;92.00;;;;;;5028442;28;20017;-60
2021/11/17 08:08:47;;;;;;;5.72;3.50;;;9.10;92.00;;;;;;5028001;28;20029;-60
2021/11/17 08:11:14;;;;;;;5.30;3.40;;;9.10;92.00;;;;;;5044064;28;20098;-60
2021/11/17 08:13:40;;;;;;;5.07;3.63;;;9.10;92.00;;;;;;5025891;28;20032;-59
2021/11/17 08:16:05;;;;;;;7.75;3.40;;;9.10;91.90;;;;;;5027969;28;20012;-60
2021/11/17 08:18:32;;;;;;;6.70;2.97;;;9.20;91.90;;;;;;5029945;28;20068;-61
2021/11/17 08:20:58;;;;;;;5.47;3.35;;;9.10;91.90;;;;;;5030001;28;20167;-60
2021/11/17 08:23:24;;;;;;;6.10;3.78;;;9.10;91.90;;;;;;5028999;28;20119;-61
2021/11/17 08:25:49;;;;;;;10.32;3.67;;;9.20;91.80;;;;;;5044910;28;20020;-61
2021/11/17 08:28:15;;;;;;;4.97;3.25;;;9.20;91.80;;;;;;5045274;28;20052;-61
2021/11/17 08:30:41;;;;;;;8.13;3.50;;;9.20;91.80;;;;;;5047096;28;20032;-61
2021/11/17 08:33:07;;;;;;;5.18;3.00;;;9.20;91.80;;;;;;5026559;28;20127;-60
2021/11/17 08:35:33;;;;;;;8.40;3.30;;;9.20;91.80;;;;;;5062560;28;20021;-60
2021/11/17 08:37:59;;;;;;;14.20;3.70;;;9.20;91.70;;;;;;5044554;28;20071;-60
2021/11/17 08:40:29;;;;;;;11.13;3.63;;;9.20;91.70;;;;;;5040966;28;20289;-60
2021/11/17 08:42:55;;;;;;;9.00;4.07;;;9.20;91.70;;;;;;5025632;28;20032;-60
2021/11/17 08:45:21;;;;;;;13.45;3.83;;;9.20;91.90;;;;;;5027103;28;20032;-62
2021/11/17 08:47:47;;;;;;;21.15;4.97;;;9.20;91.60;;;;;;5027178;28;20017;-60
2021/11/17 08:50:15;;;;;;;16.50;4.10;;;9.20;91.60;;;;;;5009377;28;20035;-60
2021/11/17 08:52:40;;;;;;;20.80;4.28;;;9.20;91.60;;;;;;5043013;28;20029;-60
2021/11/17 08:55:07;;;;;;;31.38;4.93;;;9.20;91.60;;;;;;5042986;28;20037;-60
2021/11/17 08:57:33;;;;;;;25.52;4.93;;;9.20;91.50;;;;;;5042333;28;20572;-61
2021/11/17 09:00:00;;;;;;;27.77;4.88;;;9.20;91.50;;;;;;5044812;28;20032;-60
2021/11/17 09:02:25;;;;;;;47.70;5.75;;;9.20;91.50;;;;;;5041731;28;20078;-61
2021/11/17 09:04:51;;;;;;;38.40;5.75;;;9.20;91.50;;;;;;5043050;28;20044;-61
2021/11/17 09:07:18;;;;;;;21.85;5.18;;;9.20;91.70;;;;;;5026329;28;20317;-60
2021/11/17 09:09:44;;;;;;;27.85;5.35;;;9.20;91.40;;;;;;5043569;28;20021;-61
2021/11/17 09:12:10;;;;;;;28.52;4.60;;;9.20;91.30;;;;;;5044813;28;20062;-61
2021/11/17 09:14:36;;;;;;;28.80;5.35;;;9.20;91.30;;;;;;5028038;28;20244;-60
2021/11/17 09:17:02;;;;;;;25.52;4.82;;;9.20;91.30;;;;;;5059264;28;20212;-61
2021/11/17 09:19:28;;;;;;;26.42;4.82;;;9.30;91.40;;;;;;5024888;28;20040;-61
2021/11/17 09:21:53;;;;;;;38.40;4.90;;;9.30;91.30;;;;;;5041221;28;20028;-60
2021/11/17 09:24:20;;;;;;;24.73;5.72;;;9.20;91.30;;;;;;5040068;28;20081;-63
2021/11/17 09:26:46;;;;;;;28.48;5.30;;;9.30;91.30;;;;;;5044098;28;20375;-60
2021/11/17 09:29:11;;;;;;;23.33;4.82;;;9.20;91.30;;;;;;5041489;28;20051;-61
2021/11/17 09:31:40;;;;;;;36.25;5.43;;;9.30;91.30;;;;;;5058974;28;20040;-61
2021/11/17 09:34:05;;;;;;;33.65;5.63;;;9.30;91.30;;;;;;5022552;28;20162;-61
2021/11/17 09:36:32;;;;;;;32.85;4.97;;;9.30;91.20;;;;;;5024758;28;20312;-61
2021/11/17 09:38:57;;;;;;;27.70;5.47;;;9.30;91.10;;;;;;5024228;28;20119;-61
2021/11/17 09:41:32;;;;;;;33.47;5.38;;;9.30;91.10;;;;;;5025009;28;20114;-61
2021/11/17 09:44:04;;;;;;;29.40;5.22;;;9.20;91.10;;;;;;5057808;28;20494;-61
2021/11/17 09:46:31;;;;;;;31.95;4.55;;;9.30;91.10;;;;;;5026233;28;20082;-61
2021/11/17 09:49:16;;;;;;;45.22;6.05;;;9.20;91.00;;;;;;5023915;28;20804;-61
2021/11/17 09:51:45;;;;;;;14.65;4.00;;;9.20;91.00;;;;;;5027043;28;20056;-61
2021/11/17 09:54:31;;;;;;;31.25;4.97;;;9.30;91.00;;;;;;5025271;28;20425;-62
2021/11/17 09:57:04;;;;;;;25.23;5.57;;;9.30;91.00;;;;;;5040674;28;20037;-62
2021/11/17 09:59:42;;;;;;;37.08;5.15;;;9.30;91.00;;;;;;5026020;28;20048;-61
2021/11/17 10:02:18;;;;;;;27.95;5.45;;;9.30;90.90;;;;;;5042415;28;20036;-60
2021/11/17 10:04:53;;;;;;;28.85;5.20;;;9.30;90.90;;;;;;5043110;28;20024;-62
2021/11/17 10:11:10;;;;;;;38.05;4.97;;;9.30;91.00;;;;;;5041445;28;20086;-61
2021/11/17 10:14:07;;;;;;;28.10;4.60;;;9.30;91.00;;;;;;5032278;28;20052;-61
2021/11/17 10:16:33;;;;;;;31.80;5.25;;;9.30;91.00;;;;;;5019527;28;20040;-61
2021/11/17 10:19:26;;;;;;;34.55;5.05;;;9.30;91.00;;;;;;5039933;28;20036;-61
2021/11/17 10:22:10;;;;;;;41.20;5.93;;;9.30;91.00;;;;;;5057408;28;20028;-61
2021/11/17 10:24:48;;;;;;;37.70;4.85;;;9.30;91.10;;;;;;5009320;28;20021;-60
2021/11/17 10:27:25;;;;;;;18.67;4.43;;;9.30;91.00;;;;;;5057037;28;20878;-61
2021/11/17 10:30:06;;;;;;;41.10;5.32;;;9.30;90.90;;;;;;5040058;28;20032;-61
2021/11/17 10:33:03;;;;;;;38.58;5.05;;;9.30;90.90;;;;;;5057921;28;20106;-61
2021/11/17 10:35:38;;;;;;;26.33;5.38;;;9.30;90.90;;;;;;5043593;28;20048;-62
2021/11/17 10:38:10;;;;;;;29.40;4.60;;;9.30;90.90;;;;;;5041984;28;20442;-61
2021/11/17 10:40:54;;;;;;;45.83;5.93;;;9.40;91.00;;;;;;5027438;28;20407;-61
2021/11/17 10:43:25;;;;;;;47.10;5.45;;;9.40;91.00;;;;;;5026420;28;20328;-61
2021/11/17 10:46:03;;;;;;;60.35;7.72;;;9.40;91.00;;;;;;5043329;28;20043;-61
2021/11/17 10:48:35;;;;;;;45.42;5.90;;;9.50;91.00;;;;;;5041243;28;20024;-61
2021/11/17 10:51:14;;;;;;;48.25;6.65;;;9.50;91.00;;;;;;5027182;28;20123;-61
2021/11/17 10:53:40;;;;;;;57.17;6.93;;;9.50;91.00;;;;;;5042527;28;20128;-63
2021/11/17 10:56:08;;;;;;;41.13;6.50;;;9.50;91.00;;;;;;5010258;28;20123;-61
2021/11/17 10:58:38;;;;;;;63.38;7.18;;;9.60;91.00;;;;;;5027882;28;20487;-61
2021/11/17 11:01:14;;;;;;;67.53;6.78;;;9.60;91.00;;;;;;5009023;28;20451;-61
2021/11/17 11:03:44;;;;;;;;;;;9.60;91.00;;;;;;5043983;28;20263;-61
2021/11/17 11:06:31;;;;;;;75.32;8.50;;;9.60;91.10;;;;;;5041623;28;19928;-61
2021/11/17 11:09:16;;;;;;;62.17;8.40;;;9.60;91.10;;;;;;5026231;28;20280;-60
2021/11/17 11:11:47;;;;;;;75.85;8.80;;;9.60;91.00;;;;;;5058788;28;20028;-62
2021/11/17 11:14:16;;;;;;;70.88;8.13;;;9.70;91.00;;;;;;5007665;28;20040;-60
2021/11/17 11:16:45;;;;;;;78.10;9.70;;;9.70;91.00;;;;;;5042777;28;20104;-61
2021/11/17 11:19:12;;;;;;;65.00;8.60;;;9.70;91.00;;;;;;5025444;28;20147;-61
2021/11/17 11:21:57;;;;;;;98.50;9.95;;;9.70;91.00;;;;;;5061197;28;20562;-65
2021/11/17 11:24:29;;;;;;;74.80;10.20;;;9.70;91.00;;;;;;5060224;28;20271;-61
2021/11/17 11:27:00;;;;;;;66.78;8.55;;;9.70;90.90;;;;;;5058701;28;20075;-61
2021/11/17 11:29:29;;;;;;;63.67;8.63;;;9.70;90.80;;;;;;5059110;28;20271;-61
2021/11/17 11:32:01;;;;;;;63.55;8.15;;;9.70;90.60;;;;;;5037547;28;20036;-60
2021/11/17 11:34:35;;;;;;;44.88;7.53;;;9.70;90.60;;;;;;5038823;28;20143;-61
2021/11/17 11:37:02;;;;;;;46.03;7.45;;;9.60;90.70;;;;;;5054228;28;20028;-61
2021/11/17 11:39:33;;;;;;;69.82;8.93;;;9.80;90.60;;;;;;5007681;28;20485;-60
2021/11/17 11:42:39;;;;;;;80.15;10.43;;;9.80;90.70;;;;;;5056238;28;20028;-60
2021/11/17 11:45:07;;;;;;;71.33;9.23;;;9.80;90.80;;;;;;5036944;28;20048;-61
2021/11/17 11:47:56;;;;;;;70.85;8.15;;;9.80;90.80;;;;;;5037130;28;20020;-60
2021/11/17 11:50:35;;;;;;;50.13;8.35;;;9.80;90.50;;;;;;5023137;28;20391;-60
2021/11/17 11:53:03;;;;;;;45.15;7.35;;;9.80;90.40;;;;;;5039225;28;20341;-61
2021/11/17 11:55:52;;;;;;;61.65;7.80;;;9.80;90.40;;;;;;5057510;28;20036;-60
2021/11/17 11:58:20;;;;;;;42.72;6.65;;;9.70;90.30;;;;;;5058214;28;20119;-64
2021/11/17 12:01:00;;;;;;;59.28;8.13;;;9.80;90.30;;;;;;5056316;28;20036;-61
2021/11/17 12:03:28;;;;;;;75.78;9.48;;;9.70;90.40;;;;;;5026500;28;20048;-60
2021/11/17 12:06:14;;;;;;;67.53;7.78;;;9.70;90.50;;;;;;5025913;28;20131;-61
2021/11/17 12:08:45;;;;;;;46.13;7.97;;;9.80;90.40;;;;;;5040881;28;20079;-61
2021/11/17 12:11:17;;;;;;;55.50;7.78;;;9.80;90.20;;;;;;5021361;28;20074;-61
2021/11/17 12:13:57;;;;;;;65.75;7.57;;;9.80;90.30;;;;;;5055687;28;20028;-60
2021/11/17 12:16:26;;;;;;;59.58;7.90;;;9.80;90.20;;;;;;5055745;28;20054;-61
2021/11/17 12:18:59;;;;;;;48.50;7.53;;;9.80;90.10;;;;;;5061539;28;20383;-61
2021/11/17 12:21:27;;;;;;;70.55;8.52;;;9.80;90.00;;;;;;5028043;28;20756;-60
2021/11/17 12:24:12;;;;;;;73.57;9.02;;;9.80;90.00;;;;;;5059354;28;20032;-60
2021/11/17 12:26:40;;;;;;;47.13;7.78;;;9.80;90.10;;;;;;5060250;28;20282;-60
2021/11/17 12:29:13;;;;;;;49.55;6.50;;;9.80;90.10;;;;;;5036412;28;20107;-60
2021/11/17 12:31:57;;;;;;;38.67;6.70;;;9.90;90.00;;;;;;5043775;28;20032;-61
2021/11/17 12:34:44;;;;;;;56.08;7.05;;;9.80;89.80;;;;;;5008020;28;20348;-60
2021/11/17 12:37:17;;;;;;;34.80;6.32;;;9.90;89.90;;;;;;5032249;28;20131;-60
2021/11/17 12:39:56;;;;;;;44.03;7.00;;;9.90;89.90;;;;;;5037651;28;20063;-61
2021/11/17 12:42:25;;;;;;;55.47;7.07;;;9.90;89.80;;;;;;5053584;28;20035;-60
2021/11/17 12:44:51;;;;;;;52.42;6.63;;;9.90;89.60;;;;;;5024838;28;20032;-61
2021/11/17 12:47:23;;;;;;;54.30;6.88;;;9.90;89.50;;;;;;5015709;28;20097;-61
2021/11/17 12:49:50;;;;;;;55.30;8.18;;;9.90;89.40;;;;;;5024509;28;20001;-60
2021/11/17 12:52:26;;;;;;;51.20;7.68;;;9.90;89.40;;;;;;5034439;28;20119;-60
2021/11/17 12:55:06;;;;;;;47.33;6.53;;;9.90;89.30;;;;;;5037662;28;20025;-60
2021/11/17 12:57:53;;;;;;;43.08;5.57;;;9.90;89.30;;;;;;5040588;28;20036;-61
2021/11/17 13:00:18;;;;;;;31.30;5.55;;;9.90;89.30;;;;;;5026147;28;20504;-61
2021/11/17 13:02:51;;;;;;;41.05;5.80;;;9.90;89.30;;;;;;5039880;28;20074;-61
2021/11/17 13:05:48;;;;;;;33.28;5.93;;;9.90;89.30;;;;;;5037273;28;20533;-60
2021/11/17 13:08:15;;;;;;;;;;;9.90;89.30;;;;;;5057376;28;20032;-61
2021/11/17 13:10:59;;;;;;;40.80;5.93;;;9.90;89.10;;;;;;5052211;28;19916;-61
2021/11/17 13:13:46;;;;;;;45.88;6.50;;;9.90;89.10;;;;;;5034908;28;20159;-61
2021/11/17 13:16:13;;;;;;;50.08;7.05;;;9.90;89.10;;;;;;5055889;28;20036;-60
2021/11/17 13:18:41;;;;;;;40.67;5.88;;;9.80;89.10;;;;;;5040336;28;20025;-60
2021/11/17 13:21:15;;;;;;;43.67;7.00;;;9.80;89.00;;;;;;5057554;28;20028;-60
2021/11/17 13:24:00;;;;;;;24.02;5.57;;;9.90;89.10;;;;;;5055376;28;20486;-61
2021/11/17 13:26:31;;;;;;;52.92;6.22;;;9.90;88.40;;;;;;5056842;28;20067;-60
2021/11/17 13:29:15;;;;;;;32.80;5.43;;;9.80;88.50;;;;;;5023154;28;20028;-60
2021/11/17 13:31:43;;;;;;;33.75;5.35;;;9.80;88.60;;;;;;5003401;28;20527;-60
2021/11/17 13:34:11;;;;;;;45.38;6.15;;;9.80;88.70;;;;;;5054736;28;20044;-60
2021/11/17 13:36:49;;;;;;;65.90;7.18;;;9.80;88.80;;;;;;5013198;28;20036;-61
2021/11/17 13:39:20;;;;;;;58.28;7.15;;;10.00;88.60;;;;;;5013982;28;20035;-60
2021/11/17 13:41:48;;;;;;;42.88;7.18;;;9.80;88.60;;;;;;5016453;28;20033;-59
2021/11/17 13:44:14;;;;;;;65.03;6.72;;;9.80;88.60;;;;;;5030854;28;20463;-59
2021/11/17 13:46:57;;;;;;;69.90;7.25;;;9.80;88.60;;;;;;5035054;28;20025;-59
2021/11/17 13:49:23;;;;;;;57.55;6.25;;;9.80;88.50;;;;;;5054813;28;20028;-60
2021/11/17 13:51:48;;;;;;;57.15;7.13;;;9.80;88.40;;;;;;5040447;28;20039;-61
2021/11/17 13:54:14;;;;;;;72.95;8.18;;;9.80;88.60;;;;;;5031493;28;20052;-60
2021/11/17 13:56:39;;;;;;;53.75;7.50;;;9.80;88.70;;;;;;5032957;28;20127;-61
2021/11/17 13:59:05;;;;;;;74.18;9.88;;;9.90;88.50;;;;;;5032752;28;20044;-60
2021/11/17 14:01:31;;;;;;;64.80;9.52;;;9.90;88.40;;;;;;5033458;28;20021;-60
2021/11/17 14:03:56;;;;;;;156.70;16.60;;;9.90;88.50;;;;;;5031077;28;20486;-60
2021/11/17 14:06:22;;;;;;;78.93;11.43;;;9.90;88.60;;;;;;5011540;28;20333;-60
2021/11/17 14:08:48;;;;;;;71.72;6.95;;;10.00;88.50;;;;;;5028880;28;20515;-59
2021/11/17 14:11:15;;;;;;;64.97;8.68;;;10.00;88.40;;;;;;5014669;28;20036;-59
2021/11/17 14:13:41;;;;;;;59.05;6.65;;;10.00;88.30;;;;;;5024693;28;20032;-59
2021/11/17 14:16:06;;;;;;;59.60;7.85;;;10.00;88.20;;;;;;5038212;28;20044;-59
2021/11/17 14:18:32;;;;;;;75.90;6.63;;;9.90;88.10;;;;;;5026717;28;20126;-59
2021/11/17 14:21:02;;;;;;;46.28;6.43;;;9.90;87.80;;;;;;5040784;28;20346;-60
2021/11/17 14:23:27;;;;;;;103.72;10.07;;;9.90;88.00;;;;;;5024904;28;20041;-60
2021/11/17 14:25:53;;;;;;;68.25;7.07;;;9.90;87.90;;;;;;5042550;28;20024;-60
2021/11/17 14:28:21;;;;;;;49.85;7.20;;;10.00;87.80;;;;;;5044560;28;20065;-59
2021/11/17 14:30:52;;;;;;;57.67;6.95;;;10.00;87.80;;;;;;5009197;28;20585;-61
2021/11/17 14:33:25;;;;;;;48.38;6.30;;;9.90;87.90;;;;;;5024626;28;20043;-59
2021/11/17 14:35:50;;;;;;;51.28;5.65;;;9.90;87.90;;;;;;5023708;28;20025;-60
2021/11/17 14:38:18;;;;;;;122.57;12.00;;;9.90;87.60;;;;;;5026129;28;20561;-60
2021/11/17 14:40:44;;;;;;;99.75;11.10;;;9.90;87.60;;;;;;5053745;28;20021;-59
2021/11/17 14:43:10;;;;;;;83.20;8.27;;;9.90;87.80;;;;;;5058220;28;20264;-59
2021/11/17 14:45:35;;;;;;;76.88;8.10;;;9.90;87.80;;;;;;5023469;28;20040;-59
2021/11/17 14:48:01;;;;;;;67.35;8.65;;;9.90;87.60;;;;;;5039468;28;20769;-60
2021/11/17 14:50:27;;;;;;;88.15;10.02;;;9.90;87.70;;;;;;5021637;28;20720;-59
2021/11/17 14:52:52;;;;;;;57.55;8.18;;;9.90;87.40;;;;;;5039281;28;20136;-59
2021/11/17 14:55:20;;;;;;;92.65;10.45;;;9.90;87.70;;;;;;5042562;28;20054;-60
2021/11/17 14:57:46;;;;;;;59.08;8.88;;;9.90;87.60;;;;;;5022702;28;20032;-59
2021/11/17 15:00:24;;;;;;;125.13;11.50;;;9.90;87.80;;;;;;5025009;28;20054;-60
2021/11/17 15:02:49;;;;;;;80.13;9.80;;;9.90;87.90;;;;;;5034541;28;20047;-60
2021/11/17 15:05:15;;;;;;;85.13;10.20;;;9.90;87.80;;;;;;5029194;28;20053;-61
2021/11/17 15:07:40;;;;;;;100.70;10.98;;;9.90;87.50;;;;;;5037940;28;20028;-59
2021/11/17 15:10:07;;;;;;;80.43;9.52;;;10.00;87.50;;;;;;5034585;28;20429;-60
2021/11/17 15:12:34;;;;;;;117.32;14.77;;;9.90;87.70;;;;;;5052462;28;22310;-60
2021/11/17 15:15:00;;;;;;;124.75;15.30;;;10.00;87.80;;;;;;5017996;28;20037;-60
2021/11/17 15:17:26;;;;;;;138.88;17.02;;;10.00;88.00;;;;;;5002989;28;20080;-61
2021/11/17 15:19:51;;;;;;;151.15;15.10;;;10.00;88.20;;;;;;5003241;28;20116;-60
2021/11/17 15:22:17;;;;;;;102.43;13.88;;;10.00;88.30;;;;;;5033147;28;20013;-60
2021/11/17 15:24:43;;;;;;;113.07;15.77;;;10.00;88.40;;;;;;5008503;28;20495;-60
2021/11/17 15:27:12;;;;;;;150.48;16.45;;;10.00;88.40;;;;;;5017861;28;20108;-60
2021/11/17 15:29:40;;;;;;;176.23;18.80;;;10.10;88.50;;;;;;5046294;28;20051;-60
2021/11/17 15:32:06;;;;;;;188.63;21.15;;;10.10;88.60;;;;;;5011085;28;20408;-60
2021/11/17 15:34:32;;;;;;;185.05;20.88;;;10.10;88.80;;;;;;5025590;28;20021;-60
2021/11/17 15:36:57;;;;;;;212.23;20.70;;;10.10;89.10;;;;;;5049392;28;20727;-60
2021/11/17 15:39:23;;;;;;;165.93;20.38;;;10.10;89.20;;;;;;5031851;28;20036;-60
2021/11/17 15:41:48;;;;;;;147.10;16.23;;;10.10;89.00;;;;;;5035984;28;20052;-60
2021/11/17 15:44:14;;;;;;;171.30;18.00;;;10.10;88.90;;;;;;5014968;28;20037;-60
2021/11/17 15:46:59;;;;;;;242.00;26.55;;;10.10;88.70;;;;;;5016601;28;20605;-60
2021/11/17 15:49:25;;;;;;;221.95;21.95;;;10.10;89.50;;;;;;5031240;28;20999;-60
2021/11/17 15:51:51;;;;;;;169.00;20.55;;;10.10;89.10;;;;;;5017189;28;20784;-60